createdAt,value
2023-03-20T00:02:21.959Z,100028.02
2023-03-20T00:04:50.999Z,100028.52
2023-03-20T00:07:19.588Z,100022.45
2023-03-20T00:09:49.809Z,100024.04
2023-03-20T00:12:22.329Z,100018.68
2023-03-20T00:14:51.456Z,100014.91
2023-03-20T00:17:21.187Z,100011.97
2023-03-20T00:19:56.816Z,100009.89
2023-03-20T00:22:25.143Z,100006.64
2023-03-20T00:24:54.579Z,100006.22
2023-03-20T00:27:26.002Z,100000.50
2023-03-20T00:29:58.318Z,99995.31
2023-03-20T00:32:27.309Z,99992.09
2023-03-20T00:35:02.078Z,99991.02
2023-03-20T00:37:30.759Z,99991.70
2023-03-20T00:39:59.509Z,99991.09
2023-03-20T00:42:28.519Z,99985.14
2023-03-20T00:44:59.756Z,99982.46
2023-03-20T00:47:28.628Z,99981.66
2023-03-20T00:49:58.108Z,99981.40
2023-03-20T00:52:27.585Z,99982.94
2023-03-20T00:54:55.894Z,99980.51
2023-03-20T00:57:29.323Z,99976.58
2023-03-20T01:00:07.238Z,99971.53
2023-03-20T01:02:36.782Z,99974.00
2023-03-20T01:05:06.071Z,99976.77
2023-03-20T01:07:34.509Z,99979.42
2023-03-20T01:10:05.572Z,99978.94
2023-03-20T01:12:34.135Z,99977.69
2023-03-20T01:15:02.812Z,99973.16
2023-03-20T01:17:31.341Z,99977.36
2023-03-20T01:19:59.580Z,99978.10
2023-03-20T01:22:27.976Z,99974.70
2023-03-20T01:24:56.437Z,99971.01
2023-03-20T01:27:24.989Z,99968.89
2023-03-20T01:29:53.386Z,99970.18
2023-03-20T01:32:22.369Z,99968.84
2023-03-20T01:34:53.269Z,99969.83
2023-03-20T01:37:25.448Z,99965.41
2023-03-20T01:39:56.102Z,99965.13
2023-03-20T01:42:24.996Z,99967.08
2023-03-20T01:44:53.787Z,99964.55
2023-03-20T01:47:24.133Z,99961.51
2023-03-20T01:50:22.984Z,99964.14
2023-03-20T01:53:01.930Z,99965.54
2023-03-20T01:55:30.580Z,99969.17
2023-03-20T01:58:06.476Z,99966.21
2023-03-20T02:00:36.933Z,99974.49
2023-03-20T02:03:07.052Z,99980.55
2023-03-20T02:05:55.672Z,99984.07
2023-03-20T02:08:32.205Z,99981.20
2023-03-20T02:11:04.334Z,99977.64
2023-03-20T02:13:33.235Z,99978.07
2023-03-20T02:16:13.684Z,99979.48
2023-03-20T02:18:56.876Z,99978.17
2023-03-20T02:22:00.397Z,99983.09
2023-03-20T02:24:44.526Z,99983.38
2023-03-20T02:27:31.705Z,99982.23
2023-03-20T02:30:35.858Z,99983.70
2023-03-20T02:33:23.590Z,99976.16
2023-03-20T02:36:17.163Z,99972.67
2023-03-20T02:39:16.200Z,99973.65
2023-03-20T02:41:48.067Z,99971.65
2023-03-20T02:44:37.829Z,99961.98
2023-03-20T02:47:49.432Z,99960.94
2023-03-20T02:50:40.591Z,99954.44
2023-03-20T02:53:45.332Z,99949.16
2023-03-20T02:56:55.275Z,99942.38
2023-03-20T02:59:50.640Z,99938.98
2023-03-20T03:02:22.332Z,99936.73
2023-03-20T03:04:53.395Z,99932.60
2023-03-20T03:07:24.845Z,99933.10
2023-03-20T03:10:00.144Z,99929.98
2023-03-20T03:12:30.925Z,99931.26
2023-03-20T03:15:05.574Z,99934.81
2023-03-20T03:17:35.061Z,99933.05
2023-03-20T03:20:15.998Z,99934.77
2023-03-20T03:22:44.297Z,99935.46
2023-03-20T03:25:13.919Z,99931.93
2023-03-20T03:27:44.361Z,99927.27
2023-03-20T03:30:26.250Z,99920.86
2023-03-20T03:33:19.805Z,99926.96
2023-03-20T03:38:03.118Z,99930.53
2023-03-20T03:40:59.869Z,99922.84
2023-03-20T03:44:16.180Z,99918.88
2023-03-20T03:46:56.417Z,99917.70
2023-03-20T03:49:28.288Z,99915.50
2023-03-20T03:52:00.810Z,99913.29
2023-03-20T03:54:37.058Z,99922.27
2023-03-20T03:57:46.217Z,99922.39
2023-03-20T04:00:19.203Z,99923.13
2023-03-20T04:02:50.475Z,99920.21
2023-03-20T04:05:31.602Z,99913.55
2023-03-20T04:08:03.303Z,99913.72
2023-03-20T04:10:32.181Z,99914.05
2023-03-20T04:13:02.856Z,99915.64
2023-03-20T04:15:34.862Z,99918.49
2023-03-20T04:18:04.669Z,99919.93
2023-03-20T04:20:34.050Z,99920.92
2023-03-20T04:23:02.829Z,99923.39
2023-03-20T04:25:37.227Z,99924.06
2023-03-20T04:28:05.747Z,99921.77
2023-03-20T04:30:58.931Z,99926.61
2023-03-20T04:33:36.506Z,99927.88
2023-03-20T04:36:14.452Z,99929.35
2023-03-20T04:38:43.963Z,99927.02
2023-03-20T04:41:12.371Z,99927.39
2023-03-20T04:43:43.715Z,99927.09
2023-03-20T04:46:12.233Z,99925.70
2023-03-20T04:48:41.439Z,99926.92
2023-03-20T04:51:10.739Z,99929.57
2023-03-20T04:53:49.691Z,99925.01
2023-03-20T04:56:18.925Z,99923.38
2023-03-20T04:58:49.103Z,99923.13
2023-03-20T05:01:19.893Z,99919.98
2023-03-20T05:03:49.019Z,99923.63
2023-03-20T05:06:17.438Z,99925.67
2023-03-20T05:08:47.297Z,99921.17
2023-03-20T05:11:16.396Z,99924.23
2023-03-20T05:14:06.958Z,99920.98
2023-03-20T05:16:50.971Z,99912.97
2023-03-20T05:19:35.766Z,99912.64
2023-03-20T05:22:20.064Z,99915.27
2023-03-20T05:25:11.634Z,99912.16
2023-03-20T05:27:48.965Z,99909.72
2023-03-20T05:30:43.761Z,99908.82
2023-03-20T05:33:43.752Z,99914.48
2023-03-20T05:36:31.239Z,99914.10
2023-03-20T05:39:19.314Z,99912.07
2023-03-20T05:41:53.747Z,99912.02
2023-03-20T05:44:39.845Z,99916.45
2023-03-20T05:47:38.891Z,99917.80
2023-03-20T05:50:45.558Z,99920.81
2023-03-20T05:53:39.293Z,99920.39
2023-03-20T05:56:17.480Z,99919.02
2023-03-20T05:59:08.570Z,99923.73
2023-03-20T06:02:12.656Z,99929.46
2023-03-20T06:04:44.887Z,99930.51
2023-03-20T06:07:21.818Z,99932.81
2023-03-20T06:09:59.677Z,99934.61
2023-03-20T06:12:28.029Z,99937.77
2023-03-20T06:14:56.741Z,99937.61
2023-03-20T06:17:27.403Z,99937.74
2023-03-20T06:20:01.444Z,99934.14
2023-03-20T06:22:31.275Z,99941.98
2023-03-20T06:25:00.660Z,99942.88
2023-03-20T06:27:36.692Z,99939.59
2023-03-20T06:30:08.498Z,99936.41
2023-03-20T06:32:38.735Z,99938.69
2023-03-20T06:35:09.396Z,99942.20
2023-03-20T06:37:38.617Z,99941.27
2023-03-20T06:40:11.703Z,99935.93
2023-03-20T06:42:41.398Z,99938.02
2023-03-20T06:45:11.422Z,99934.75
2023-03-20T06:48:16.976Z,99932.32
2023-03-20T06:50:46.429Z,99935.20
2023-03-20T06:53:17.364Z,99927.20
2023-03-20T06:55:55.834Z,99922.73
2023-03-20T06:58:24.773Z,99920.11
2023-03-20T07:00:54.846Z,99922.41
2023-03-20T07:03:23.809Z,99922.55
2023-03-20T07:05:52.997Z,99922.02
2023-03-20T07:08:22.199Z,99920.44
2023-03-20T07:10:51.865Z,99919.06
2023-03-20T07:13:20.912Z,99915.52
2023-03-20T07:16:08.923Z,99906.32
2023-03-20T07:18:40.224Z,99907.50
2023-03-20T07:21:09.441Z,99910.31
2023-03-20T07:23:39.020Z,99909.39
2023-03-20T07:26:07.384Z,99904.71
2023-03-20T07:28:38.536Z,99905.27
2023-03-20T07:31:29.006Z,99905.75
2023-03-20T07:34:11.170Z,99906.98
2023-03-20T07:36:44.440Z,99906.05
2023-03-20T07:39:13.726Z,99906.01
2023-03-20T07:41:46.612Z,99898.44
2023-03-20T07:44:24.647Z,99896.96
2023-03-20T07:46:55.335Z,99894.82
2023-03-20T07:49:24.847Z,99891.08
2023-03-20T07:51:57.486Z,99890.45
2023-03-20T07:54:26.612Z,99887.06
2023-03-20T07:56:55.272Z,99882.06
2023-03-20T07:59:26.796Z,99878.47
2023-03-20T08:01:55.208Z,99874.19
2023-03-20T08:04:30.403Z,99875.17
2023-03-20T08:06:59.808Z,99875.38
2023-03-20T08:09:28.650Z,99871.67
2023-03-20T08:12:02.560Z,99868.61
2023-03-20T08:14:31.475Z,99872.67
2023-03-20T08:17:13.612Z,99876.23
2023-03-20T08:19:43.515Z,99875.30
2023-03-20T08:22:12.644Z,99879.11
2023-03-20T08:24:41.197Z,99878.88
2023-03-20T08:27:10.861Z,99880.73
2023-03-20T08:29:39.595Z,99881.77
2023-03-20T08:32:14.530Z,99880.51
2023-03-20T08:34:43.504Z,99880.44
2023-03-20T08:37:13.063Z,99881.44
2023-03-20T08:39:41.530Z,99879.88
2023-03-20T08:42:10.099Z,99878.21
2023-03-20T08:44:39.714Z,99875.14
2023-03-20T08:47:10.618Z,99866.71
2023-03-20T08:49:39.024Z,99861.29
2023-03-20T08:52:07.768Z,99863.17
2023-03-20T08:54:36.472Z,99867.33
2023-03-20T08:57:12.918Z,99863.34
2023-03-20T08:59:41.893Z,99860.74
2023-03-20T09:02:12.102Z,99859.05
2023-03-20T09:04:40.945Z,99850.88
2023-03-20T09:07:09.500Z,99851.08
2023-03-20T09:09:38.372Z,99844.23
2023-03-20T09:12:07.871Z,99841.71
2023-03-20T09:14:38.572Z,99842.95
2023-03-20T09:17:07.106Z,99840.33
2023-03-20T09:19:39.718Z,99835.34
2023-03-20T09:22:08.727Z,99834.52
2023-03-20T09:24:37.140Z,99832.21
2023-03-20T09:27:07.789Z,99826.57
2023-03-20T09:29:36.230Z,99827.39
2023-03-20T09:32:05.361Z,99824.05
2023-03-20T09:34:34.286Z,99823.15
2023-03-20T09:37:03.382Z,99824.77
2023-03-20T09:39:35.825Z,99822.53
2023-03-20T09:42:32.954Z,99822.90
2023-03-20T09:45:23.191Z,99822.79
2023-03-20T09:48:11.489Z,99819.39
2023-03-20T09:50:48.867Z,99815.00
2023-03-20T09:53:37.228Z,99807.52
2023-03-20T09:56:09.603Z,99799.91
2023-03-20T09:58:38.853Z,99795.73
2023-03-20T10:01:07.511Z,99787.95
2023-03-20T10:03:50.820Z,99790.58
2023-03-20T10:06:19.403Z,99789.54
2023-03-20T10:08:47.904Z,99783.34
2023-03-20T10:11:19.221Z,99784.77
2023-03-20T10:14:00.486Z,99783.29
2023-03-20T10:16:45.136Z,99782.40
2023-03-20T10:19:18.059Z,99776.27
2023-03-20T10:21:48.868Z,99774.54
2023-03-20T10:24:19.846Z,99768.38
2023-03-20T10:26:52.939Z,99769.09
2023-03-20T10:29:25.774Z,99760.67
2023-03-20T10:32:18.443Z,99758.45
2023-03-20T10:35:10.031Z,99752.55
2023-03-20T10:38:20.125Z,99750.84
2023-03-20T10:40:48.451Z,99749.45
2023-03-20T10:43:25.032Z,99743.45
2023-03-20T10:46:04.566Z,99743.14
2023-03-20T10:48:52.955Z,99739.89
2023-03-20T10:51:22.931Z,99739.02
2023-03-20T10:53:56.795Z,99739.05
2023-03-20T10:56:32.651Z,99739.84
2023-03-20T10:59:07.108Z,99737.04
2023-03-20T11:01:37.815Z,99737.48
2023-03-20T11:04:06.487Z,99725.65
2023-03-20T11:06:40.542Z,99717.45
2023-03-20T11:09:19.327Z,99718.43
2023-03-20T11:11:49.134Z,99713.04
2023-03-20T11:14:22.995Z,99710.51
2023-03-20T11:16:52.726Z,99705.98
2023-03-20T11:19:22.684Z,99697.56
2023-03-20T11:21:56.735Z,99691.02
2023-03-20T11:24:37.721Z,99686.92
2023-03-20T11:27:29.953Z,99681.27
2023-03-20T11:30:02.997Z,99682.81
2023-03-20T11:32:42.197Z,99680.64
2023-03-20T11:35:19.815Z,99674.02
2023-03-20T11:37:50.994Z,99678.64
2023-03-20T11:40:24.155Z,99680.27
2023-03-20T11:42:54.417Z,99678.39
2023-03-20T11:45:22.828Z,99676.70
2023-03-20T11:47:57.297Z,99671.08
2023-03-20T11:50:35.417Z,99670.80
2023-03-20T11:53:18.307Z,99666.55
2023-03-20T11:55:56.369Z,99669.23
2023-03-20T11:58:25.747Z,99667.44
2023-03-20T12:00:54.701Z,99659.39
2023-03-20T12:03:32.988Z,99657.84
2023-03-20T12:06:01.903Z,99654.52
2023-03-20T12:08:31.343Z,99654.56
2023-03-20T12:11:01.333Z,99651.84
2023-03-20T12:13:33.567Z,99649.10
2023-03-20T12:16:03.887Z,99642.92
2023-03-20T12:18:36.098Z,99640.83
2023-03-20T12:21:24.493Z,99637.05
2023-03-20T12:24:22.213Z,99636.64
2023-03-20T12:27:08.026Z,99636.52
2023-03-20T12:29:43.890Z,99634.36
2023-03-20T12:32:36.259Z,99630.86
2023-03-20T12:35:14.269Z,99630.45
2023-03-20T12:37:44.076Z,99630.39
2023-03-20T12:40:16.834Z,99624.01
2023-03-20T12:43:27.739Z,99625.46
2023-03-20T12:46:03.257Z,99618.30
2023-03-20T12:48:56.911Z,99617.67
2023-03-20T12:51:47.781Z,99616.39
2023-03-20T12:54:31.433Z,99612.11
2023-03-20T12:57:19.810Z,99606.05
2023-03-20T13:00:16.612Z,99607.44
2023-03-20T13:02:55.785Z,99604.24
2023-03-20T13:05:43.911Z,99605.52
2023-03-20T13:08:18.216Z,99599.08
2023-03-20T13:10:55.289Z,99594.64
2023-03-20T13:13:38.434Z,99599.38
2023-03-20T13:16:16.044Z,99600.48
2023-03-20T13:19:02.564Z,99591.98
2023-03-20T13:21:41.318Z,99587.37
2023-03-20T13:24:24.972Z,99582.86
2023-03-20T13:27:08.628Z,99582.08
2023-03-20T13:30:07.731Z,99582.86
2023-03-20T13:32:48.676Z,99579.55
2023-03-20T13:35:17.236Z,99579.00
2023-03-20T13:37:49.481Z,99577.75
2023-03-20T13:40:28.686Z,99577.89
2023-03-20T13:42:58.736Z,99576.34
2023-03-20T13:45:40.521Z,99576.50
2023-03-20T13:48:32.648Z,99572.57
2023-03-20T13:51:34.616Z,99563.52
2023-03-20T13:54:42.181Z,99560.31
2023-03-20T13:57:39.474Z,99567.61
2023-03-20T14:00:25.286Z,99568.55
2023-03-20T14:03:15.569Z,99564.86
2023-03-20T14:05:44.302Z,99559.52
2023-03-20T14:08:27.835Z,99557.19
2023-03-20T14:11:21.063Z,99553.27
2023-03-20T14:13:56.687Z,99550.98
2023-03-20T14:16:27.715Z,99549.13
2023-03-20T14:19:24.724Z,99543.59
2023-03-20T14:21:56.413Z,99542.63
2023-03-20T14:24:24.815Z,99540.77
2023-03-20T14:26:58.307Z,99534.79
2023-03-20T14:29:29.607Z,99530.77
2023-03-20T14:32:18.189Z,99530.88
2023-03-20T14:34:59.641Z,99537.66
2023-03-20T14:37:39.532Z,99540.84
2023-03-20T14:40:20.941Z,99534.81
2023-03-20T14:42:58.261Z,99529.66
2023-03-20T14:45:36.909Z,99528.64
2023-03-20T14:48:14.941Z,99531.84
2023-03-20T14:50:46.993Z,99533.00
2023-03-20T14:53:20.114Z,99535.02
2023-03-20T14:56:12.497Z,99531.01
2023-03-20T14:59:00.388Z,99525.48
2023-03-20T15:01:38.580Z,99531.13
2023-03-20T15:04:09.877Z,99535.66
2023-03-20T15:07:06.459Z,99532.20
2023-03-20T15:09:38.969Z,99531.20
2023-03-20T15:12:07.705Z,99532.34
2023-03-20T15:14:43.886Z,99529.34
2023-03-20T15:17:21.813Z,99529.77
2023-03-20T15:19:50.399Z,99530.36
2023-03-20T15:22:20.450Z,99538.02
2023-03-20T15:24:56.173Z,99537.54
2023-03-20T15:27:29.661Z,99534.73
2023-03-20T15:29:59.184Z,99542.77
2023-03-20T15:32:27.590Z,99543.48
2023-03-20T15:34:56.046Z,99542.91
2023-03-20T15:37:24.278Z,99542.86
2023-03-20T15:39:56.326Z,99551.19
2023-03-20T15:42:25.403Z,99548.92
2023-03-20T15:44:54.290Z,99555.13
2023-03-20T15:47:24.605Z,99561.09
2023-03-20T15:50:03.475Z,99557.54
2023-03-20T15:54:17.936Z,99558.09
2023-03-20T15:56:45.971Z,99553.69
2023-03-20T15:59:14.242Z,99554.58
2023-03-20T16:01:42.076Z,99561.25
2023-03-20T16:04:09.105Z,99559.33
2023-03-20T16:06:37.517Z,99560.13
2023-03-20T16:09:05.817Z,99556.38
2023-03-20T16:11:38.139Z,99557.19
2023-03-20T16:14:10.108Z,99563.39
2023-03-20T16:16:37.023Z,99569.33
2023-03-20T16:19:05.763Z,99569.55
2023-03-20T16:21:37.773Z,99574.92
2023-03-20T16:24:09.275Z,99573.55
2023-03-20T16:26:37.793Z,99580.06
2023-03-20T16:29:06.863Z,99578.91
2023-03-20T16:31:35.460Z,99574.77
2023-03-20T16:34:17.682Z,99572.38
2023-03-20T16:36:52.894Z,99572.98
2023-03-20T16:39:21.087Z,99569.77
2023-03-20T16:42:10.676Z,99573.82
2023-03-20T16:44:39.676Z,99579.48
2023-03-20T16:47:32.606Z,99581.48
2023-03-20T16:50:19.140Z,99585.72
2023-03-20T16:52:51.353Z,99586.46
2023-03-20T16:55:22.488Z,99580.59
2023-03-20T16:57:50.936Z,99580.64
2023-03-20T17:00:29.906Z,99585.70
2023-03-20T17:03:00.677Z,99583.32
2023-03-20T17:05:56.910Z,99581.32
2023-03-20T17:08:29.242Z,99581.40
2023-03-20T17:11:03.073Z,99580.46
2023-03-20T17:13:30.957Z,99580.95
2023-03-20T17:16:02.980Z,99587.05
2023-03-20T17:18:30.528Z,99581.98
2023-03-20T17:20:57.714Z,99585.09
2023-03-20T17:23:25.019Z,99586.10
2023-03-20T17:25:52.354Z,99583.84
2023-03-20T17:28:21.285Z,99580.33
2023-03-20T17:30:49.447Z,99578.40
2023-03-20T17:33:18.380Z,99577.06
2023-03-20T17:35:46.799Z,99577.73
2023-03-20T17:38:18.572Z,99576.41
2023-03-20T17:40:46.133Z,99567.94
2023-03-20T17:43:13.712Z,99568.36
2023-03-20T17:45:41.125Z,99567.98
2023-03-20T17:48:26.550Z,99571.91
2023-03-20T17:50:53.456Z,99571.13
2023-03-20T17:53:24.969Z,99571.11
2023-03-20T17:55:52.004Z,99570.45
2023-03-20T17:58:22.001Z,99571.30
2023-03-20T18:00:53.055Z,99569.89
2023-03-20T18:03:20.927Z,99564.27
2023-03-20T18:05:48.923Z,99559.79
2023-03-20T18:08:20.933Z,99555.88
2023-03-20T18:10:48.566Z,99556.78
2023-03-20T18:13:20.374Z,99558.95
2023-03-20T18:15:49.252Z,99560.21
2023-03-20T18:18:18.716Z,99560.06
2023-03-20T18:20:50.308Z,99560.30
2023-03-20T18:23:18.998Z,99561.60
2023-03-20T18:25:45.757Z,99560.02
2023-03-20T18:28:20.154Z,99558.65
2023-03-20T18:30:48.212Z,99562.63
2023-03-20T18:33:17.584Z,99561.65
2023-03-20T18:35:46.189Z,99557.65
2023-03-20T18:38:13.683Z,99557.15
2023-03-20T18:40:42.060Z,99557.96
2023-03-20T18:43:10.340Z,99562.09
2023-03-20T18:45:39.412Z,99559.39
2023-03-20T18:48:26.504Z,99557.63
2023-03-20T18:51:00.646Z,99561.09
2023-03-20T18:53:29.038Z,99558.30
2023-03-20T18:55:55.952Z,99558.77
2023-03-20T18:58:27.713Z,99562.72
2023-03-20T19:00:55.477Z,99556.06
2023-03-20T19:03:23.855Z,99557.88
2023-03-20T19:05:55.595Z,99554.04
2023-03-20T19:08:22.900Z,99551.83
2023-03-20T19:10:51.113Z,99552.38
2023-03-20T19:13:19.768Z,99552.36
2023-03-20T19:15:46.674Z,99550.99
2023-03-20T19:18:18.880Z,99549.14
2023-03-20T19:20:48.098Z,99550.87
2023-03-20T19:23:16.460Z,99547.52
2023-03-20T19:25:44.862Z,99546.74
2023-03-20T19:28:40.666Z,99547.78
2023-03-20T19:31:09.228Z,99542.44
2023-03-20T19:33:37.933Z,99540.63
2023-03-20T19:36:05.976Z,99539.17
2023-03-20T19:38:36.794Z,99536.13
2023-03-20T19:41:04.762Z,99536.85
2023-03-20T19:43:32.356Z,99536.90
2023-03-20T19:45:59.572Z,99535.80
2023-03-20T19:48:49.247Z,99534.35
2023-03-20T19:51:27.815Z,99535.61
2023-03-20T19:53:56.224Z,99534.13
2023-03-20T19:56:23.605Z,99535.55
2023-03-20T19:58:50.726Z,99534.59
2023-03-20T20:01:19.901Z,99538.36
2023-03-20T20:03:49.027Z,99539.55
2023-03-20T20:06:19.001Z,99537.27
2023-03-20T20:08:49.514Z,99537.84
2023-03-20T20:11:20.064Z,99537.51
2023-03-20T20:16:38.976Z,99526.02
2023-03-20T20:19:10.938Z,99524.96
2023-03-20T20:24:25.210Z,99524.06
2023-03-20T20:27:14.591Z,99520.80
2023-03-20T20:29:46.362Z,99518.51
2023-03-20T20:32:13.153Z,99517.29
2023-03-20T20:38:25.219Z,99516.68
2023-03-20T20:40:17.797Z,99516.05
2023-03-20T20:42:51.005Z,99513.52
2023-03-20T20:45:25.473Z,99516.08
2023-03-20T20:47:53.489Z,99513.30
2023-03-20T20:50:24.382Z,99513.34
2023-03-20T20:52:52.650Z,99510.87
2023-03-20T20:55:23.707Z,99512.14
2023-03-20T20:57:52.972Z,99509.43
2023-03-20T21:00:22.773Z,99506.99
2023-03-20T21:02:49.935Z,99503.89
2023-03-20T21:05:17.072Z,99503.29
2023-03-20T21:07:46.718Z,99503.62
2023-03-20T21:10:15.628Z,99504.80
2023-03-20T21:12:58.184Z,99497.04
2023-03-20T21:15:27.300Z,99495.83
2023-03-20T21:18:01.234Z,99497.73
2023-03-20T21:20:30.457Z,99493.66
2023-03-20T21:22:58.070Z,99493.71
2023-03-20T21:25:38.706Z,99491.91
2023-03-20T21:28:07.976Z,99486.05
2023-03-20T21:30:44.197Z,99485.25
2023-03-20T21:33:20.849Z,99485.16
2023-03-20T21:35:48.613Z,99484.65
2023-03-20T21:38:58.616Z,99486.52
2023-03-20T21:41:09.780Z,99484.48
2023-03-20T21:43:36.941Z,99478.42
2023-03-20T21:46:56.660Z,99476.98
2023-03-20T21:49:40.170Z,99474.22
2023-03-20T22:00:51.022Z,99471.63
2023-03-20T22:02:56.062Z,99472.41
2023-03-20T22:17:30.154Z,99468.05
2023-03-20T22:28:38.578Z,99454.89
2023-03-20T22:31:26.669Z,99454.30
2023-03-20T22:34:09.800Z,99451.06
2023-03-20T22:45:00.112Z,99443.33
2023-03-20T22:47:21.112Z,99440.02
2023-03-20T22:49:48.172Z,99443.88
2023-03-20T22:52:29.091Z,99440.67
2023-03-20T22:54:59.193Z,99442.48
2023-03-20T22:57:40.280Z,99441.39
2023-03-20T23:00:16.129Z,99441.69
2023-03-20T23:02:43.049Z,99434.89
2023-03-20T23:05:10.610Z,99431.78
2023-03-20T23:07:37.612Z,99430.45
2023-03-20T23:10:09.010Z,99430.95
2023-03-20T23:12:36.830Z,99429.31
2023-03-20T23:15:04.730Z,99431.23
2023-03-20T23:17:32.136Z,99430.09
2023-03-20T23:20:10.852Z,99424.52
2023-03-20T23:22:39.144Z,99422.14
2023-03-20T23:25:16.406Z,99422.08
2023-03-20T23:27:51.794Z,99417.09
2023-03-20T23:30:19.807Z,99416.21
2023-03-20T23:32:47.046Z,99418.98
2023-03-20T23:35:14.354Z,99420.40
2023-03-20T23:37:41.330Z,99417.69
2023-03-20T23:40:08.601Z,99413.97
2023-03-20T23:42:35.813Z,99413.14
2023-03-20T23:45:17.155Z,99414.86
2023-03-20T23:47:47.744Z,99414.14
2023-03-20T23:50:28.574Z,99409.88
2023-03-20T23:53:09.809Z,99406.50
2023-03-20T23:55:42.158Z,99404.61
2023-03-20T23:58:16.365Z,99407.04
